createdAt,value
2022-08-17T00:01:51.368Z,87.43
2022-08-17T00:04:20.277Z,87.27
2022-08-17T00:06:49.134Z,87.02
2022-08-17T00:09:18.959Z,85.88
2022-08-17T00:12:41.839Z,86.12
2022-08-17T00:14:35.021Z,84.88
2022-08-17T00:17:02.715Z,85.09
2022-08-17T00:19:29.959Z,85.70
2022-08-17T00:22:31.048Z,85.57
2022-08-17T00:24:47.019Z,84.51
2022-08-17T00:27:13.506Z,85.56
2022-08-17T00:29:40.088Z,84.81
2022-08-17T00:33:10.929Z,86.12
2022-08-17T00:34:53.404Z,87.10
2022-08-17T00:37:20.237Z,87.63
2022-08-17T00:39:46.795Z,87.22
2022-08-17T00:42:15.330Z,87.41
2022-08-17T00:44:41.885Z,87.64
2022-08-17T00:47:08.487Z,88.34
2022-08-17T00:49:35.026Z,87.75
2022-08-17T00:52:11.667Z,86.59
2022-08-17T00:54:41.798Z,87.17
2022-08-17T00:57:19.320Z,87.00
2022-08-17T01:00:03.228Z,87.62
2022-08-17T01:02:35.010Z,87.77
2022-08-17T01:05:10.868Z,88.03
2022-08-17T01:07:38.019Z,87.67
2022-08-17T01:10:06.668Z,87.27
2022-08-17T01:12:35.312Z,87.27
2022-08-17T01:15:05.086Z,87.30
2022-08-17T01:17:31.896Z,87.02
2022-08-17T01:19:58.579Z,87.93
2022-08-17T01:22:25.668Z,88.01
2022-08-17T01:25:01.825Z,88.08
2022-08-17T01:27:29.008Z,87.70
2022-08-17T01:29:59.437Z,88.10
2022-08-17T01:32:27.657Z,87.48
2022-08-17T01:34:54.603Z,86.22
2022-08-17T01:37:29.106Z,86.46
2022-08-17T01:40:13.620Z,86.42
2022-08-17T01:42:45.797Z,86.32
2022-08-17T01:45:17.563Z,86.62
2022-08-17T01:47:44.411Z,87.60
2022-08-17T01:50:15.881Z,87.88
2022-08-17T01:52:49.351Z,87.59
2022-08-17T01:55:18.103Z,88.22
2022-08-17T01:57:45.577Z,87.38
2022-08-17T02:00:13.227Z,86.99
2022-08-17T02:02:39.842Z,87.67
2022-08-17T02:05:07.714Z,87.74
2022-08-17T02:08:00.036Z,88.82
2022-08-17T02:10:23.457Z,89.58
2022-08-17T02:12:50.493Z,88.84
2022-08-17T02:15:17.187Z,89.00
2022-08-17T02:17:43.658Z,89.11
2022-08-17T02:20:10.729Z,90.62
2022-08-17T02:22:42.476Z,91.48
2022-08-17T02:25:10.273Z,90.65
2022-08-17T02:27:38.172Z,90.66
2022-08-17T02:30:58.943Z,91.14
2022-08-17T02:32:54.231Z,91.17
2022-08-17T02:35:24.072Z,91.00
2022-08-17T02:37:51.919Z,90.93
2022-08-17T02:40:35.811Z,90.58
2022-08-17T02:43:04.025Z,89.92
2022-08-17T02:45:30.591Z,89.47
2022-08-17T02:47:57.082Z,89.15
2022-08-17T02:50:24.579Z,89.48
2022-08-17T02:52:57.299Z,89.53
2022-08-17T02:55:34.280Z,88.92
2022-08-17T02:58:01.993Z,89.67
2022-08-17T03:00:34.168Z,89.80
2022-08-17T03:03:02.674Z,88.45
2022-08-17T03:05:30.970Z,88.99
2022-08-17T03:07:57.591Z,88.38
2022-08-17T03:10:25.569Z,88.43
2022-08-17T03:12:52.869Z,87.29
2022-08-17T03:15:26.122Z,88.70
2022-08-17T03:17:53.588Z,88.65
2022-08-17T03:20:21.009Z,89.46
2022-08-17T03:22:53.801Z,89.01
2022-08-17T03:25:29.913Z,90.61
2022-08-17T03:27:56.945Z,90.70
2022-08-17T03:30:25.251Z,90.87
2022-08-17T03:32:54.733Z,90.58
2022-08-17T03:35:24.330Z,90.39
2022-08-17T03:37:52.407Z,90.20
2022-08-17T03:40:34.367Z,89.47
2022-08-17T03:43:14.557Z,89.78
2022-08-17T03:46:01.577Z,89.39
2022-08-17T03:48:47.543Z,90.09
2022-08-17T03:51:36.456Z,89.70
2022-08-17T03:54:22.438Z,89.80
2022-08-17T03:57:04.038Z,90.65
2022-08-17T03:59:31.142Z,89.98
2022-08-17T04:02:07.434Z,88.31
2022-08-17T04:04:34.065Z,88.48
2022-08-17T04:07:00.580Z,89.16
2022-08-17T04:09:27.171Z,88.78
2022-08-17T04:11:54.386Z,88.63
2022-08-17T04:14:23.898Z,89.08
2022-08-17T04:16:50.422Z,88.98
2022-08-17T04:19:16.967Z,88.95
2022-08-17T04:21:43.459Z,87.99
2022-08-17T04:24:11.068Z,87.83
2022-08-17T04:26:53.937Z,87.59
2022-08-17T04:29:22.259Z,87.28
2022-08-17T04:31:48.878Z,86.31
2022-08-17T04:34:19.691Z,87.00
2022-08-17T04:36:50.093Z,86.91
2022-08-17T04:39:17.013Z,87.06
2022-08-17T04:42:01.953Z,86.65
2022-08-17T04:44:37.450Z,86.39
2022-08-17T04:47:05.169Z,85.67
2022-08-17T04:49:32.651Z,85.63
2022-08-17T04:52:04.366Z,85.12
2022-08-17T04:54:31.240Z,85.28
2022-08-17T04:56:57.717Z,84.69
2022-08-17T04:59:24.257Z,84.21
2022-08-17T05:01:52.010Z,84.22
2022-08-17T05:04:34.217Z,83.96
2022-08-17T05:07:02.169Z,84.19
2022-08-17T05:09:29.071Z,83.61
2022-08-17T05:12:01.465Z,84.19
2022-08-17T05:14:33.000Z,83.96
2022-08-17T05:17:00.277Z,83.84
2022-08-17T05:19:28.766Z,83.48
2022-08-17T05:21:55.265Z,82.87
2022-08-17T05:24:38.480Z,83.18
2022-08-17T05:27:06.526Z,83.04
2022-08-17T05:29:35.784Z,83.31
2022-08-17T05:32:39.692Z,83.39
2022-08-17T05:35:00.549Z,83.16
2022-08-17T05:37:27.926Z,82.96
2022-08-17T05:39:54.520Z,82.85
2022-08-17T05:42:21.638Z,83.58
2022-08-17T05:44:48.241Z,83.83
2022-08-17T05:47:14.810Z,83.37
2022-08-17T05:49:41.296Z,82.59
2022-08-17T05:52:22.433Z,82.94
2022-08-17T05:55:03.917Z,82.33
2022-08-17T05:57:39.545Z,83.40
2022-08-17T06:00:15.320Z,82.14
2022-08-17T06:03:07.586Z,82.43
2022-08-17T06:05:37.064Z,82.47
2022-08-17T06:08:42.471Z,81.75
2022-08-17T06:11:26.891Z,80.92
2022-08-17T06:14:49.581Z,80.63
2022-08-17T06:17:18.909Z,79.60
2022-08-17T06:20:01.766Z,80.21
2022-08-17T06:22:33.499Z,80.77
2022-08-17T06:25:10.014Z,78.10
2022-08-17T06:27:46.718Z,76.10
2022-08-17T06:30:21.418Z,76.45
2022-08-17T06:32:50.140Z,76.15
2022-08-17T06:35:32.038Z,76.13
2022-08-17T06:38:09.733Z,74.92
2022-08-17T06:41:09.465Z,75.25
2022-08-17T06:43:48.097Z,73.07
2022-08-17T06:46:29.917Z,69.70
2022-08-17T06:49:10.445Z,70.12
2022-08-17T06:52:45.629Z,69.61
2022-08-17T06:55:17.990Z,68.18
2022-08-17T06:57:57.565Z,66.90
2022-08-17T07:00:28.093Z,66.45
2022-08-17T07:03:20.921Z,66.55
2022-08-17T07:06:21.161Z,66.06
2022-08-17T07:09:01.102Z,65.22
2022-08-17T07:11:32.264Z,64.75
2022-08-17T07:14:29.304Z,64.93
2022-08-17T07:16:58.516Z,65.48
2022-08-17T07:19:27.776Z,63.46
2022-08-17T07:22:18.382Z,63.42
2022-08-17T07:24:57.165Z,62.26
2022-08-17T07:27:27.710Z,61.24
2022-08-17T07:30:10.303Z,61.58
2022-08-17T07:32:43.048Z,59.58
2022-08-17T07:35:20.011Z,59.19
2022-08-17T07:37:53.171Z,59.31
2022-08-17T07:40:21.473Z,58.49
2022-08-17T07:43:23.113Z,58.98
2022-08-17T07:46:14.260Z,58.84
2022-08-17T07:48:43.318Z,58.73
2022-08-17T07:51:28.865Z,58.14
2022-08-17T07:54:13.955Z,57.56
2022-08-17T07:57:00.543Z,56.90
2022-08-17T07:59:34.407Z,56.19
2022-08-17T08:02:15.691Z,54.87
2022-08-17T08:05:02.476Z,55.30
2022-08-17T08:07:38.951Z,57.39
2022-08-17T08:10:14.013Z,55.50
2022-08-17T08:12:44.904Z,55.19
2022-08-17T08:15:22.283Z,55.46
2022-08-17T08:17:51.983Z,54.06
2022-08-17T08:20:52.184Z,54.30
2022-08-17T08:23:12.013Z,52.52
2022-08-17T08:25:53.353Z,52.71
2022-08-17T08:28:46.397Z,54.97
2022-08-17T08:31:18.746Z,52.91
2022-08-17T08:34:03.975Z,54.85
2022-08-17T08:36:57.074Z,52.64
2022-08-17T08:39:40.431Z,51.83
2022-08-17T08:42:08.895Z,51.97
2022-08-17T08:45:16.351Z,51.10
2022-08-17T08:48:05.429Z,53.46
2022-08-17T08:50:50.365Z,53.01
2022-08-17T08:53:45.959Z,53.60
2022-08-17T08:56:31.478Z,53.64
2022-08-17T08:59:16.249Z,53.25
2022-08-17T09:01:55.782Z,53.97
2022-08-17T09:04:44.951Z,53.39
2022-08-17T09:07:37.029Z,53.08
2022-08-17T09:10:29.862Z,54.17
2022-08-17T09:13:27.666Z,53.80
2022-08-17T09:15:59.211Z,52.22
2022-08-17T09:19:02.508Z,52.81
2022-08-17T09:21:26.233Z,52.88
2022-08-17T09:24:12.767Z,52.64
2022-08-17T09:26:39.452Z,52.12
2022-08-17T09:29:11.005Z,51.98
2022-08-17T09:31:46.441Z,52.13
2022-08-17T09:34:18.276Z,52.83
2022-08-17T09:36:52.256Z,52.18
2022-08-17T09:39:41.749Z,52.35
2022-08-17T09:42:18.829Z,51.51
2022-08-17T09:44:58.403Z,51.69
2022-08-17T09:47:46.585Z,50.83
2022-08-17T09:51:05.377Z,51.74
2022-08-17T09:53:13.858Z,49.01
2022-08-17T09:55:55.344Z,51.38
2022-08-17T09:58:40.554Z,50.40
2022-08-17T10:01:36.503Z,50.20
2022-08-17T10:04:20.378Z,50.84
2022-08-17T10:06:52.843Z,50.30
2022-08-17T10:09:30.060Z,48.97
2022-08-17T10:12:20.271Z,49.99
2022-08-17T10:15:09.439Z,49.09
2022-08-17T10:17:45.195Z,48.60
2022-08-17T10:20:23.510Z,48.33
2022-08-17T10:23:13.693Z,47.90
2022-08-17T10:26:04.330Z,47.86
2022-08-17T10:28:49.076Z,48.20
2022-08-17T10:31:35.057Z,49.91
2022-08-17T10:34:30.143Z,48.50
2022-08-17T10:37:11.601Z,48.10
2022-08-17T10:40:02.585Z,49.15
2022-08-17T10:42:42.690Z,49.42
2022-08-17T10:45:28.242Z,48.91
2022-08-17T10:48:31.059Z,48.72
2022-08-17T10:51:01.399Z,46.76
2022-08-17T10:53:38.734Z,49.11
2022-08-17T10:56:13.025Z,47.55
2022-08-17T10:58:55.887Z,48.79
2022-08-17T11:01:58.314Z,47.93
2022-08-17T11:04:46.042Z,47.31
2022-08-17T11:07:25.753Z,46.94
2022-08-17T11:10:23.817Z,46.13
2022-08-17T11:12:59.287Z,48.30
2022-08-17T11:15:37.367Z,47.84
2022-08-17T11:18:22.188Z,48.02
2022-08-17T11:21:09.327Z,47.12
2022-08-17T11:24:11.376Z,48.08
2022-08-17T11:26:46.274Z,48.14
2022-08-17T11:29:24.796Z,48.20
2022-08-17T11:32:05.439Z,48.08
2022-08-17T11:34:32.414Z,46.45
2022-08-17T11:37:24.535Z,45.74
2022-08-17T11:40:03.316Z,45.93
2022-08-17T11:42:36.331Z,47.13
2022-08-17T11:45:32.403Z,47.80
2022-08-17T11:48:50.529Z,46.33
2022-08-17T11:51:33.775Z,46.51
2022-08-17T11:56:52.837Z,44.92
2022-08-17T11:59:39.632Z,46.47
2022-08-17T12:02:35.256Z,45.44
2022-08-17T12:05:02.718Z,46.32
2022-08-17T12:07:32.724Z,44.59
2022-08-17T12:10:00.127Z,43.08
2022-08-17T12:12:34.171Z,42.95
2022-08-17T12:15:12.539Z,43.31
2022-08-17T12:17:52.433Z,43.51
2022-08-17T12:20:41.009Z,44.15
2022-08-17T12:23:41.585Z,43.55
2022-08-17T12:26:19.392Z,42.26
2022-08-17T12:28:51.959Z,42.89
2022-08-17T12:31:45.785Z,43.78
2022-08-17T12:34:22.152Z,43.64
2022-08-17T12:36:50.351Z,43.63
2022-08-17T12:39:24.964Z,43.42
2022-08-17T12:41:56.342Z,45.38
2022-08-17T12:44:28.190Z,42.07
2022-08-17T12:47:07.574Z,45.83
2022-08-17T12:49:36.960Z,44.66
2022-08-17T12:52:08.430Z,44.98
2022-08-17T12:55:03.499Z,43.92
2022-08-17T12:57:38.957Z,43.32
2022-08-17T13:00:17.583Z,42.09
2022-08-17T13:02:51.565Z,43.36
2022-08-17T13:05:19.108Z,43.09
2022-08-17T13:07:46.623Z,43.68
2022-08-17T13:10:17.445Z,45.03
2022-08-17T13:12:44.058Z,44.88
2022-08-17T13:15:20.362Z,45.06
2022-08-17T13:17:56.658Z,44.41
2022-08-17T13:20:23.305Z,45.54
2022-08-17T13:22:55.476Z,46.09
2022-08-17T13:25:22.681Z,47.30
2022-08-17T13:27:51.125Z,46.66
2022-08-17T13:30:30.036Z,44.16
2022-08-17T13:32:57.447Z,44.90
2022-08-17T13:35:43.605Z,44.23
2022-08-17T13:38:34.730Z,45.12
2022-08-17T13:41:03.396Z,44.37
2022-08-17T13:43:52.343Z,45.39
2022-08-17T13:46:22.089Z,45.89
2022-08-17T13:49:01.359Z,45.33
2022-08-17T13:51:34.404Z,46.04
2022-08-17T13:54:04.702Z,46.38
2022-08-17T13:56:54.706Z,46.91
2022-08-17T13:59:54.513Z,47.13
2022-08-17T14:02:23.141Z,47.40
2022-08-17T14:04:56.202Z,47.90
2022-08-17T14:07:29.622Z,48.85
2022-08-17T14:10:10.017Z,47.95
2022-08-17T14:12:38.757Z,48.06
2022-08-17T14:15:13.225Z,47.44
2022-08-17T14:17:39.804Z,47.72
2022-08-17T14:20:09.585Z,46.87
2022-08-17T14:22:39.552Z,47.63
2022-08-17T14:25:10.410Z,48.88
2022-08-17T14:27:43.268Z,49.10
2022-08-17T14:30:22.763Z,48.61
2022-08-17T14:32:49.581Z,49.32
2022-08-17T14:35:16.359Z,48.39
2022-08-17T14:37:45.813Z,48.02
2022-08-17T14:40:15.069Z,48.42
2022-08-17T14:42:43.770Z,49.03
2022-08-17T14:45:31.972Z,50.74
2022-08-17T14:48:01.099Z,50.00
2022-08-17T14:50:27.696Z,51.31
2022-08-17T14:52:56.039Z,50.58
2022-08-17T14:55:24.967Z,50.75
2022-08-17T14:57:51.739Z,51.32
2022-08-17T15:00:18.522Z,50.77
2022-08-17T15:02:54.164Z,50.89
2022-08-17T15:05:24.542Z,50.99
2022-08-17T15:07:53.547Z,51.07
2022-08-17T15:10:20.857Z,51.28
2022-08-17T15:12:47.558Z,52.20
2022-08-17T15:15:16.260Z,50.90
2022-08-17T15:17:47.107Z,52.04
2022-08-17T15:20:19.276Z,51.40
2022-08-17T15:22:50.140Z,51.72
2022-08-17T15:25:18.910Z,51.06
2022-08-17T15:27:45.478Z,52.00
2022-08-17T15:30:12.360Z,52.26
2022-08-17T15:32:40.879Z,52.24
2022-08-17T15:35:17.780Z,52.86
2022-08-17T15:37:45.204Z,54.01
2022-08-17T15:40:12.621Z,53.52
2022-08-17T15:42:40.427Z,53.18
2022-08-17T15:45:10.933Z,53.26
2022-08-17T15:47:37.618Z,53.32
2022-08-17T15:50:06.413Z,53.43
2022-08-17T15:52:40.261Z,53.07
2022-08-17T15:55:10.764Z,53.20
2022-08-17T15:57:37.613Z,53.68
2022-08-17T16:00:06.070Z,53.28
2022-08-17T16:03:45.128Z,54.48
2022-08-17T16:05:24.814Z,54.21
2022-08-17T16:07:53.610Z,53.36
2022-08-17T16:10:21.143Z,54.46
2022-08-17T16:12:49.522Z,55.44
2022-08-17T16:15:17.172Z,55.82
2022-08-17T16:17:43.791Z,56.88
2022-08-17T16:20:20.579Z,56.49
2022-08-17T16:22:49.077Z,57.14
2022-08-17T16:25:21.814Z,58.08
2022-08-17T16:27:50.494Z,57.65
2022-08-17T16:30:18.017Z,57.26
2022-08-17T16:32:45.300Z,58.90
2022-08-17T16:35:14.360Z,58.88
2022-08-17T16:37:41.815Z,59.08
2022-08-17T16:40:12.656Z,59.70
2022-08-17T16:42:39.764Z,59.92
2022-08-17T16:45:13.072Z,59.54
2022-08-17T16:50:32.751Z,59.71
2022-08-17T16:53:10.691Z,60.37
2022-08-17T16:55:37.827Z,60.96
2022-08-17T16:58:05.346Z,61.39
2022-08-17T17:00:33.456Z,61.94
2022-08-17T17:03:20.239Z,62.02
2022-08-17T17:06:14.121Z,61.89
2022-08-17T17:08:49.668Z,62.61
2022-08-17T17:11:23.493Z,61.94
2022-08-17T17:13:58.473Z,62.70
2022-08-17T17:17:07.966Z,63.58
2022-08-17T17:19:53.804Z,63.92
2022-08-17T17:22:55.580Z,63.71
2022-08-17T17:25:32.583Z,63.31
2022-08-17T17:28:14.631Z,64.08
2022-08-17T17:30:50.118Z,66.07
2022-08-17T17:33:34.926Z,64.06
2022-08-17T17:36:38.329Z,65.63
2022-08-17T17:39:10.708Z,66.60
2022-08-17T17:41:44.612Z,66.10
2022-08-17T17:44:15.293Z,66.89
2022-08-17T17:46:50.383Z,66.86
2022-08-17T17:49:18.285Z,68.25
2022-08-17T17:52:08.065Z,69.88
2022-08-17T17:54:42.414Z,70.45
2022-08-17T17:57:25.798Z,70.63
2022-08-17T18:00:13.384Z,71.16
2022-08-17T18:02:51.933Z,70.04
2022-08-17T18:05:39.442Z,71.44
2022-08-17T18:08:38.145Z,72.75
2022-08-17T18:11:12.416Z,73.15
2022-08-17T18:14:18.560Z,73.97
2022-08-17T18:16:46.514Z,73.46
2022-08-17T18:19:22.560Z,72.80
2022-08-17T18:21:53.245Z,74.04
2022-08-17T18:24:35.854Z,75.09
2022-08-17T18:27:18.958Z,74.85
2022-08-17T18:29:55.063Z,74.07
2022-08-17T18:32:38.047Z,74.08
2022-08-17T18:35:14.279Z,75.64
2022-08-17T18:37:44.929Z,76.28
2022-08-17T18:40:35.821Z,76.53
2022-08-17T18:43:12.950Z,78.50
2022-08-17T18:48:25.675Z,78.87
2022-08-17T18:50:57.115Z,80.87
2022-08-17T18:53:34.546Z,81.38
2022-08-17T18:56:44.109Z,81.04
2022-08-17T18:59:22.689Z,80.81
2022-08-17T19:02:44.229Z,79.88
2022-08-17T19:05:13.532Z,80.83
2022-08-17T19:07:43.577Z,82.67
2022-08-17T19:10:22.190Z,82.92
2022-08-17T19:13:13.755Z,82.72
2022-08-17T19:16:12.347Z,83.08
2022-08-17T19:19:02.083Z,83.04
2022-08-17T19:21:42.161Z,84.65
2022-08-17T19:24:25.132Z,82.09
2022-08-17T19:26:56.663Z,83.54
2022-08-17T19:29:43.108Z,82.68
2022-08-17T19:32:11.015Z,82.19
2022-08-17T19:34:39.463Z,83.15
2022-08-17T19:37:09.717Z,82.54
2022-08-17T19:39:58.908Z,82.82
2022-08-17T19:42:28.127Z,84.14
2022-08-17T19:45:26.942Z,85.28
2022-08-17T19:48:48.915Z,82.74
2022-08-17T19:51:34.500Z,82.26
2022-08-17T19:54:28.504Z,82.38
2022-08-17T19:57:01.684Z,81.11
2022-08-17T19:59:56.346Z,83.40
2022-08-17T20:02:41.695Z,82.29
2022-08-17T20:06:00.952Z,83.71
2022-08-17T20:08:29.816Z,84.32
2022-08-17T20:11:19.207Z,83.21
2022-08-17T20:14:10.660Z,84.20
2022-08-17T20:16:37.671Z,83.75
2022-08-17T20:19:28.342Z,83.75
2022-08-17T20:22:00.865Z,84.39
2022-08-17T20:24:37.965Z,86.57
2022-08-17T20:27:22.449Z,86.07
2022-08-17T20:30:33.103Z,86.08
2022-08-17T20:33:01.168Z,85.38
2022-08-17T20:35:33.298Z,84.59
2022-08-17T20:38:02.149Z,85.85
2022-08-17T20:40:42.767Z,86.51
2022-08-17T20:43:33.794Z,84.86
2022-08-17T20:46:31.315Z,86.61
2022-08-17T20:49:15.030Z,85.69
2022-08-17T20:52:01.555Z,83.44
2022-08-17T20:54:50.943Z,83.95
2022-08-17T20:57:40.090Z,86.57
2022-08-17T21:00:20.457Z,87.75
2022-08-17T21:02:49.790Z,89.16
2022-08-17T21:05:34.228Z,89.23
2022-08-17T21:08:15.768Z,87.70
2022-08-17T21:10:46.133Z,88.02
2022-08-17T21:13:13.439Z,88.60
2022-08-17T21:15:56.595Z,89.06
2022-08-17T21:18:38.713Z,88.98
2022-08-17T21:21:26.555Z,87.48
2022-08-17T21:24:07.760Z,86.67
2022-08-17T21:26:56.151Z,88.11
2022-08-17T21:29:33.947Z,88.41
2022-08-17T21:32:06.801Z,87.61
2022-08-17T21:34:43.580Z,87.90
2022-08-17T21:37:29.470Z,87.71
2022-08-17T21:40:23.249Z,87.96
2022-08-17T21:42:56.150Z,88.45
2022-08-17T21:45:29.484Z,88.55
2022-08-17T21:48:15.507Z,89.10
2022-08-17T21:50:44.534Z,89.21
2022-08-17T21:53:25.382Z,89.49
2022-08-17T21:55:53.831Z,89.31
2022-08-17T21:58:39.978Z,88.89
2022-08-17T22:01:23.700Z,89.58
2022-08-17T22:04:12.055Z,89.06
2022-08-17T22:06:52.370Z,89.01
2022-08-17T22:09:29.675Z,88.42
2022-08-17T22:12:03.740Z,87.40
2022-08-17T22:14:53.065Z,88.22
2022-08-17T22:17:25.707Z,87.72
2022-08-17T22:20:07.523Z,86.68
2022-08-17T22:22:59.820Z,87.05
2022-08-17T22:25:27.639Z,87.88
2022-08-17T22:28:00.293Z,87.30
2022-08-17T22:30:30.429Z,87.09
2022-08-17T22:32:57.190Z,87.17
2022-08-17T22:35:30.428Z,87.84
2022-08-17T22:37:59.096Z,87.29
2022-08-17T22:40:32.989Z,86.47
2022-08-17T22:43:03.064Z,85.79
2022-08-17T22:45:30.465Z,84.89
2022-08-17T22:47:58.908Z,85.34
2022-08-17T22:50:28.276Z,85.10
2022-08-17T22:53:22.035Z,85.46
2022-08-17T22:56:09.956Z,86.82
2022-08-17T22:59:01.191Z,86.40
2022-08-17T23:01:31.581Z,87.49
2022-08-17T23:04:04.151Z,87.15
2022-08-17T23:06:33.901Z,87.44
2022-08-17T23:09:03.946Z,87.89
2022-08-17T23:11:48.668Z,86.18
2022-08-17T23:14:19.100Z,86.87
2022-08-17T23:16:46.739Z,85.45
2022-08-17T23:19:17.070Z,85.08
2022-08-17T23:21:47.138Z,85.95
2022-08-17T23:24:23.107Z,84.04
2022-08-17T23:26:49.788Z,85.95
2022-08-17T23:29:16.502Z,86.70
2022-08-17T23:31:45.093Z,86.29
2022-08-17T23:34:13.635Z,87.56
2022-08-17T23:36:40.152Z,87.23
2022-08-17T23:39:07.572Z,87.88
2022-08-17T23:41:37.177Z,86.88
2022-08-17T23:44:05.063Z,88.07
2022-08-17T23:46:31.611Z,89.72
2022-08-17T23:48:59.479Z,88.64
2022-08-17T23:51:46.577Z,88.41
2022-08-17T23:54:26.030Z,90.21
2022-08-17T23:56:55.155Z,88.76
2022-08-17T23:59:23.299Z,87.30
